Time;durP1;ratioP1;P1;durP2;ratioP2;P2;SDS_P1;SDS_P2;PMS_P1;PMS_P2;Temp;Humidity;BMP_temperature;BMP_pressure;BME280_temperature;BME280_humidity;BME280_pressure;Samples;Min_cycle;Max_cycle;Signal;HPM_P1;HPM_P2
2022/09/26 00:01:15;;;;;;;9.23;8.80;;;15.70;74.20;;;;;;5083012;28;20032;-77
2022/09/26 00:03:51;;;;;;;;;;;15.60;74.20;;;;;;5089194;28;20027;-77
2022/09/26 00:06:18;;;;;;;7.05;6.65;;;15.60;74.10;;;;;;5085725;28;19926;-77
2022/09/26 00:08:45;;;;;;;5.68;5.38;;;15.50;74.00;;;;;;5084712;28;20103;-77
2022/09/26 00:11:14;;;;;;;6.32;5.97;;;15.40;74.10;;;;;;5084063;28;20032;-77
2022/09/26 00:13:41;;;;;;;5.35;5.05;;;15.40;74.20;;;;;;5083106;28;20025;-77
2022/09/26 00:16:08;;;;;;;4.47;4.18;;;15.20;74.20;;;;;;5083936;28;20107;-77
2022/09/26 00:18:34;;;;;;;3.72;3.42;;;15.20;74.30;;;;;;5082823;28;20025;-77
2022/09/26 00:21:12;;;;;;;3.45;3.20;;;15.10;74.40;;;;;;5083000;28;20136;-77
2022/09/26 00:23:38;;;;;;;3.20;3.00;;;15.10;74.50;;;;;;5079984;28;20486;-77
2022/09/26 00:26:05;;;;;;;2.80;2.60;;;15.10;74.50;;;;;;5080228;28;20045;-77
2022/09/26 00:28:31;;;;;;;2.17;1.98;;;15.00;74.40;;;;;;5081778;28;20024;-78
2022/09/26 00:31:05;;;;;;;2.40;2.20;;;15.00;74.50;;;;;;5080516;28;20021;-78
2022/09/26 00:33:31;;;;;;;2.13;1.98;;;15.00;74.50;;;;;;5082197;28;20025;-78
2022/09/26 00:35:57;;;;;;;1.90;1.80;;;15.00;74.40;;;;;;5064618;28;20060;-78
2022/09/26 00:38:23;;;;;;;2.20;2.00;;;15.00;74.40;;;;;;5081859;28;20094;-78
2022/09/26 00:40:49;;;;;;;2.13;2.00;;;14.90;74.50;;;;;;5081557;28;20029;-78
2022/09/26 00:43:39;;;;;;;2.58;2.38;;;14.90;74.50;;;;;;5079527;28;20029;-78
2022/09/26 00:46:21;;;;;;;2.67;2.47;;;14.90;74.50;;;;;;5077709;28;20078;-78
2022/09/26 00:48:58;;;;;;;0.98;0.98;;;14.80;74.40;;;;;;5079489;28;20024;-78
2022/09/26 00:51:23;;;;;;;1.00;1.00;;;14.80;74.50;;;;;;5080596;28;20032;-78
2022/09/26 00:53:51;;;;;;;1.30;1.20;;;14.70;74.50;;;;;;5062348;28;20051;-78
2022/09/26 00:56:31;;;;;;;0.80;0.80;;;14.70;74.50;;;;;;5077113;28;20052;-78
2022/09/26 00:59:13;;;;;;;0.90;0.90;;;14.70;74.70;;;;;;5076228;28;20052;-78
2022/09/26 01:01:39;;;;;;;0.70;0.70;;;14.70;74.60;;;;;;5079323;28;20021;-78
2022/09/26 01:04:06;;;;;;;0.68;0.68;;;14.70;74.50;;;;;;5077543;28;20036;-78
2022/09/26 01:06:32;;;;;;;0.68;0.68;;;14.70;74.60;;;;;;5073229;28;20029;-78
2022/09/26 01:09:06;;;;;;;0.70;0.70;;;14.80;74.60;;;;;;5073706;28;20146;-78
2022/09/26 01:11:36;;;;;;;0.80;0.80;;;14.90;74.70;;;;;;5074380;28;20036;-78
2022/09/26 01:14:07;;;;;;;0.80;0.80;;;15.00;74.60;;;;;;5074157;28;20115;-78
2022/09/26 01:16:33;;;;;;;0.82;0.82;;;15.10;74.50;;;;;;5077079;28;20421;-78
2022/09/26 01:19:01;;;;;;;;;;;15.10;74.50;;;;;;5076971;28;20029;-78
2022/09/26 01:21:53;;;;;;;;;;;15.20;74.50;;;;;;5077351;28;19905;-78
2022/09/26 01:24:43;;;;;;;0.20;0.20;;;15.20;74.30;;;;;;5074906;28;20376;-78
2022/09/26 01:27:34;;;;;;;0.00;0.00;;;15.20;74.20;;;;;;5076951;28;20048;-78
2022/09/26 01:30:07;;;;;;;0.00;0.00;;;15.20;74.20;;;;;;5079188;28;20041;-78
2022/09/26 01:33:00;;;;;;;0.00;0.00;;;15.10;74.30;;;;;;5078648;28;20043;-78
2022/09/26 01:36:03;;;;;;;0.00;0.00;;;15.10;74.40;;;;;;5078087;28;20074;-78
2022/09/26 01:38:49;;;;;;;0.00;0.00;;;15.10;74.40;;;;;;5077672;28;20017;-78
2022/09/26 01:41:52;;;;;;;0.00;0.00;;;15.00;74.90;;;;;;5074569;28;20405;-78
2022/09/26 01:44:33;;;;;;;0.00;0.00;;;15.10;74.50;;;;;;5075357;28;20516;-78
2022/09/26 01:47:22;;;;;;;0.00;0.00;;;15.00;74.50;;;;;;5074047;28;20020;-78
2022/09/26 01:49:53;;;;;;;0.10;0.10;;;15.00;74.50;;;;;;5073429;28;20120;-78
2022/09/26 01:52:25;;;;;;;0.00;0.00;;;15.00;74.40;;;;;;5073500;28;20072;-78
2022/09/26 01:55:14;;;;;;;0.00;0.00;;;15.00;74.40;;;;;;5073629;28;20040;-78
2022/09/26 01:57:47;;;;;;;0.00;0.00;;;15.00;74.50;;;;;;5073251;28;20146;-78
2022/09/26 02:00:13;;;;;;;0.00;0.00;;;15.00;74.40;;;;;;5073602;28;20024;-78
2022/09/26 02:02:43;;;;;;;0.00;0.00;;;14.90;74.40;;;;;;5075177;28;20028;-78
2022/09/26 02:05:21;;;;;;;0.00;0.00;;;14.90;74.40;;;;;;5073663;28;20028;-78
2022/09/26 02:08:14;;;;;;;0.00;0.00;;;14.90;74.40;;;;;;5073232;28;20031;-78
2022/09/26 02:10:49;;;;;;;0.00;0.00;;;14.90;74.40;;;;;;5074806;28;20032;-78
2022/09/26 02:13:34;;;;;;;0.00;0.00;;;14.90;74.40;;;;;;5073930;28;20024;-78
2022/09/26 02:16:09;;;;;;;0.00;0.00;;;14.90;74.40;;;;;;5074538;28;20032;-79
2022/09/26 02:18:42;;;;;;;0.00;0.00;;;14.80;74.40;;;;;;5073671;28;20509;-78
2022/09/26 02:21:16;;;;;;;0.00;0.00;;;14.80;74.40;;;;;;5072208;28;20115;-78
2022/09/26 02:23:42;;;;;;;0.00;0.00;;;14.80;74.40;;;;;;5073653;28;20012;-78
2022/09/26 02:26:08;;;;;;;0.00;0.00;;;14.80;74.40;;;;;;5073545;28;20039;-78
2022/09/26 02:28:34;;;;;;;0.00;0.00;;;14.80;74.40;;;;;;5074051;28;20115;-78
2022/09/26 02:31:03;;;;;;;0.03;0.03;;;14.80;74.40;;;;;;5074189;28;20044;-78
2022/09/26 02:33:29;;;;;;;0.00;0.00;;;14.80;74.40;;;;;;5072600;28;20020;-78
2022/09/26 02:35:55;;;;;;;;;;;14.70;74.30;;;;;;5072153;28;20035;-78
2022/09/26 02:38:27;;;;;;;0.00;0.00;;;14.70;74.30;;;;;;5055789;28;20014;-78
2022/09/26 02:40:59;;;;;;;0.00;0.00;;;14.60;74.20;;;;;;5071794;28;20031;-78
2022/09/26 02:43:34;;;;;;;0.10;0.10;;;14.50;74.20;;;;;;5072180;28;20020;-78
2022/09/26 02:46:28;;;;;;;0.10;0.10;;;14.40;74.20;;;;;;5072082;28;20034;-78
2022/09/26 02:49:08;;;;;;;0.00;0.00;;;14.30;74.30;;;;;;5070845;28;20463;-78
2022/09/26 02:51:55;;;;;;;0.00;0.00;;;14.20;74.30;;;;;;5072414;28;20021;-78
2022/09/26 02:54:24;;;;;;;;;;;14.10;74.20;;;;;;5072668;28;20021;-78
2022/09/26 02:57:17;;;;;;;0.00;0.00;;;14.00;74.20;;;;;;5072077;28;19935;-78
2022/09/26 03:00:04;;;;;;;0.10;0.10;;;13.90;74.20;;;;;;5072025;28;20382;-78
2022/09/26 03:02:37;;;;;;;0.10;0.10;;;13.80;74.30;;;;;;5070712;28;20054;-78
2022/09/26 03:05:07;;;;;;;0.00;0.00;;;13.70;74.30;;;;;;5072458;28;20020;-78
2022/09/26 03:07:42;;;;;;;0.05;0.05;;;13.60;74.30;;;;;;5072487;28;20035;-77
2022/09/26 03:10:09;;;;;;;0.00;0.00;;;13.60;74.40;;;;;;5072437;28;20103;-78
2022/09/26 03:12:37;;;;;;;0.10;0.10;;;13.50;74.40;;;;;;5054647;28;20119;-78
2022/09/26 03:15:05;;;;;;;0.10;0.10;;;13.50;74.40;;;;;;5072461;28;20024;-78
2022/09/26 03:17:33;;;;;;;0.10;0.10;;;13.50;74.50;;;;;;5073430;28;20020;-78
2022/09/26 03:20:20;;;;;;;0.40;0.40;;;13.50;74.50;;;;;;5071409;28;20028;-78
2022/09/26 03:22:46;;;;;;;0.10;0.10;;;13.60;74.60;;;;;;5073210;28;20017;-78
2022/09/26 03:25:15;;;;;;;;;;;13.60;74.50;;;;;;5072722;28;20441;-78
2022/09/26 03:27:44;;;;;;;0.00;0.00;;;13.70;74.40;;;;;;5072631;28;19916;-78
2022/09/26 03:30:12;;;;;;;0.00;0.00;;;13.70;74.30;;;;;;5072151;28;20043;-78
2022/09/26 03:32:39;;;;;;;0.00;0.00;;;13.70;74.40;;;;;;5072680;28;20044;-78
2022/09/26 03:35:06;;;;;;;0.00;0.00;;;13.70;74.40;;;;;;5071915;28;20050;-78
2022/09/26 03:37:33;;;;;;;0.00;0.00;;;13.80;74.40;;;;;;5072994;28;20028;-78
2022/09/26 03:40:05;;;;;;;0.00;0.00;;;13.80;74.30;;;;;;5072727;28;20447;-78
2022/09/26 03:42:33;;;;;;;0.00;0.00;;;13.90;74.40;;;;;;5071694;28;20020;-78
2022/09/26 03:45:00;;;;;;;0.00;0.00;;;13.90;74.30;;;;;;5071938;28;20032;-78
2022/09/26 03:47:26;;;;;;;0.00;0.00;;;14.00;74.30;;;;;;5071360;28;20024;-78
2022/09/26 03:49:52;;;;;;;0.00;0.00;;;14.00;74.30;;;;;;5072659;28;20486;-78
2022/09/26 03:52:18;;;;;;;0.00;0.00;;;14.00;74.20;;;;;;5071016;28;20092;-78
2022/09/26 03:54:44;;;;;;;0.00;0.00;;;14.00;74.20;;;;;;5054873;28;20194;-78
2022/09/26 03:57:11;;;;;;;;;;;13.90;74.10;;;;;;5073073;28;20070;-78
2022/09/26 03:59:37;;;;;;;0.00;0.00;;;13.80;74.10;;;;;;5073083;28;19911;-78
2022/09/26 04:02:03;;;;;;;0.00;0.00;;;13.80;74.00;;;;;;5072858;28;20040;-78
2022/09/26 04:04:28;;;;;;;0.00;0.00;;;13.60;73.90;;;;;;5070300;28;20029;-78
2022/09/26 04:06:54;;;;;;;0.00;0.00;;;13.60;74.00;;;;;;5054033;28;20028;-78
2022/09/26 04:09:20;;;;;;;0.00;0.00;;;13.50;74.00;;;;;;5070767;28;20090;-78
2022/09/26 04:11:45;;;;;;;0.00;0.00;;;13.40;74.00;;;;;;5072493;28;20076;-78
2022/09/26 04:14:11;;;;;;;0.00;0.00;;;13.40;74.20;;;;;;5072792;28;20030;-78
2022/09/26 04:16:37;;;;;;;0.00;0.00;;;13.40;74.30;;;;;;5071650;28;20518;-77
2022/09/26 04:19:03;;;;;;;0.00;0.00;;;13.40;74.20;;;;;;5071062;28;20063;-78
2022/09/26 04:21:29;;;;;;;0.00;0.00;;;13.40;74.20;;;;;;5070690;28;20482;-78
2022/09/26 04:23:55;;;;;;;0.00;0.00;;;13.30;74.10;;;;;;5071799;28;20025;-78
2022/09/26 04:26:22;;;;;;;;;;;13.30;74.10;;;;;;5072957;28;20051;-78
2022/09/26 04:28:49;;;;;;;0.00;0.00;;;13.20;74.10;;;;;;5071828;28;19915;-78
2022/09/26 04:31:15;;;;;;;0.00;0.00;;;13.10;74.00;;;;;;5072005;28;20028;-78
2022/09/26 04:33:41;;;;;;;0.00;0.00;;;13.00;74.00;;;;;;5070756;28;20055;-78
2022/09/26 04:36:10;;;;;;;0.00;0.00;;;12.90;74.10;;;;;;5070827;28;20059;-78
2022/09/26 04:38:38;;;;;;;0.00;0.00;;;12.80;74.10;;;;;;5072416;28;20013;-78
2022/09/26 04:41:08;;;;;;;0.00;0.00;;;12.80;74.20;;;;;;5074908;28;20095;-78
2022/09/26 04:43:34;;;;;;;0.00;0.00;;;12.80;74.30;;;;;;5075775;28;20052;-78
2022/09/26 04:46:01;;;;;;;0.00;0.00;;;12.80;74.30;;;;;;5073662;28;20032;-78
2022/09/26 04:48:27;;;;;;;0.00;0.00;;;12.90;74.40;;;;;;5073268;28;20055;-78
2022/09/26 04:50:53;;;;;;;0.00;0.00;;;13.00;74.30;;;;;;5074493;28;20029;-78
2022/09/26 04:53:19;;;;;;;0.00;0.00;;;13.10;74.30;;;;;;5074422;28;20112;-78
2022/09/26 04:55:46;;;;;;;0.00;0.00;;;13.10;74.20;;;;;;5073333;28;20032;-78
2022/09/26 04:58:13;;;;;;;0.00;0.00;;;13.20;74.20;;;;;;5074603;28;20023;-78
2022/09/26 05:00:44;;;;;;;0.00;0.00;;;13.20;74.10;;;;;;5074101;28;20020;-78
2022/09/26 05:03:13;;;;;;;0.00;0.00;;;13.20;74.00;;;;;;5074238;28;20382;-78
2022/09/26 05:05:44;;;;;;;0.00;0.00;;;13.20;73.90;;;;;;5072805;28;20110;-78
2022/09/26 05:08:10;;;;;;;0.25;0.20;;;13.20;73.90;;;;;;5073051;28;20024;-78
2022/09/26 05:10:37;;;;;;;0.00;0.00;;;13.10;73.80;;;;;;5074104;28;20540;-79
2022/09/26 05:13:04;;;;;;;0.00;0.00;;;13.00;73.80;;;;;;5075002;28;20090;-78
2022/09/26 05:15:31;;;;;;;0.00;0.00;;;12.80;73.80;;;;;;5074113;28;20039;-78
2022/09/26 05:17:58;;;;;;;0.00;0.00;;;12.70;73.80;;;;;;5074145;28;20123;-78
2022/09/26 05:20:30;;;;;;;0.00;0.00;;;12.60;73.90;;;;;;5074079;28;20325;-78
2022/09/26 05:22:57;;;;;;;0.10;0.10;;;12.50;73.90;;;;;;5073956;28;20024;-78
2022/09/26 05:28:08;;;;;;;0.00;0.00;;;12.40;73.90;;;;;;5072613;28;20525;-77
2022/09/26 05:30:34;;;;;;;0.00;0.00;;;12.30;74.10;;;;;;5075133;28;20037;-78
2022/09/26 05:33:00;;;;;;;0.00;0.00;;;12.40;74.20;;;;;;5074254;28;20025;-78
2022/09/26 05:35:26;;;;;;;0.00;0.00;;;12.40;74.20;;;;;;5074171;28;20056;-78
2022/09/26 05:38:02;;;;;;;0.00;0.00;;;12.50;74.10;;;;;;5073996;28;20071;-78
2022/09/26 05:43:13;;;;;;;0.00;0.00;;;12.50;74.10;;;;;;5073815;28;20043;-78
2022/09/26 05:45:38;;;;;;;0.00;0.00;;;12.60;74.20;;;;;;5073719;28;20465;-78
2022/09/26 05:48:05;;;;;;;0.00;0.00;;;12.70;74.10;;;;;;5073978;28;20115;-78
2022/09/26 05:50:31;;;;;;;;;;;12.80;74.10;;;;;;5072707;28;20032;-78
2022/09/26 05:53:01;;;;;;;0.00;0.00;;;12.90;74.10;;;;;;5072204;28;19958;-78
2022/09/26 05:55:28;;;;;;;0.00;0.00;;;13.00;74.00;;;;;;5072640;28;20039;-79
2022/09/26 05:57:59;;;;;;;0.00;0.00;;;13.00;73.90;;;;;;5072940;28;20474;-78
2022/09/26 06:00:26;;;;;;;0.00;0.00;;;13.00;73.80;;;;;;5072685;28;20363;-78
2022/09/26 06:02:56;;;;;;;0.00;0.00;;;13.10;73.90;;;;;;5072614;28;20020;-78
2022/09/26 06:05:23;;;;;;;0.00;0.00;;;13.00;73.80;;;;;;5071228;28;20032;-78
2022/09/26 06:07:49;;;;;;;0.00;0.00;;;13.00;73.90;;;;;;5072978;28;20024;-78
2022/09/26 06:10:15;;;;;;;0.00;0.00;;;13.10;73.90;;;;;;5072026;28;20583;-78
2022/09/26 06:12:41;;;;;;;0.00;0.00;;;13.10;74.00;;;;;;5073220;28;20036;-78
2022/09/26 06:15:10;;;;;;;0.00;0.00;;;13.00;73.90;;;;;;5073448;28;20032;-78
2022/09/26 06:17:35;;;;;;;0.95;0.60;;;13.10;73.90;;;;;;5055801;28;20441;-78
2022/09/26 06:20:02;;;;;;;0.00;0.00;;;13.10;74.00;;;;;;5072808;28;20025;-78
2022/09/26 06:22:28;;;;;;;0.00;0.00;;;13.10;73.80;;;;;;5070934;28;20024;-78
2022/09/26 06:24:54;;;;;;;0.00;0.00;;;13.10;73.80;;;;;;5054445;28;20028;-78
2022/09/26 06:27:21;;;;;;;0.00;0.00;;;13.00;73.70;;;;;;5071488;28;20063;-79
2022/09/26 06:29:47;;;;;;;0.00;0.00;;;13.00;73.70;;;;;;5070993;28;20043;-77
2022/09/26 06:32:13;;;;;;;0.00;0.00;;;12.90;73.70;;;;;;5072188;28;20434;-78
2022/09/26 06:34:39;;;;;;;0.10;0.10;;;12.80;73.70;;;;;;5070705;28;20048;-78
2022/09/26 06:37:05;;;;;;;0.10;0.10;;;12.70;73.60;;;;;;5071604;28;20032;-78
2022/09/26 06:39:34;;;;;;;0.00;0.00;;;12.60;73.70;;;;;;5071560;28;20054;-78
2022/09/26 06:42:06;;;;;;;0.10;0.10;;;12.50;73.80;;;;;;5071747;28;20082;-78
2022/09/26 06:44:32;;;;;;;0.10;0.10;;;12.40;74.00;;;;;;5072677;28;20029;-78
2022/09/26 06:47:01;;;;;;;0.00;0.00;;;12.50;74.10;;;;;;5072427;28;20108;-78
2022/09/26 06:49:27;;;;;;;0.10;0.10;;;12.40;73.90;;;;;;5070864;28;20051;-78
2022/09/26 06:51:53;;;;;;;0.10;0.10;;;12.40;73.90;;;;;;5071507;28;20033;-78
2022/09/26 06:54:19;;;;;;;0.10;0.10;;;12.40;73.90;;;;;;5071422;28;20028;-78
2022/09/26 06:56:45;;;;;;;0.05;0.05;;;12.30;73.80;;;;;;5070341;28;20389;-79
2022/09/26 06:59:11;;;;;;;0.00;0.00;;;12.40;73.90;;;;;;5069664;28;20032;-78
2022/09/26 07:01:37;;;;;;;0.10;0.10;;;12.30;73.80;;;;;;5071260;28;20021;-79
2022/09/26 07:04:03;;;;;;;0.00;0.00;;;12.30;73.80;;;;;;5069711;28;20035;-79
2022/09/26 07:06:29;;;;;;;0.10;0.10;;;12.30;73.90;;;;;;5071030;28;20036;-78
2022/09/26 07:08:55;;;;;;;0.10;0.10;;;12.30;73.90;;;;;;5071559;28;20032;-78
2022/09/26 07:11:21;;;;;;;0.08;0.08;;;12.30;74.00;;;;;;5070151;28;20386;-78
2022/09/26 07:13:47;;;;;;;0.10;0.10;;;12.40;74.10;;;;;;5071801;28;20044;-78
2022/09/26 07:16:13;;;;;;;0.00;0.00;;;12.50;74.30;;;;;;5071088;28;20121;-78
2022/09/26 07:18:39;;;;;;;0.00;0.00;;;12.80;74.30;;;;;;5071603;28;20020;-78
2022/09/26 07:21:06;;;;;;;0.00;0.00;;;13.00;74.20;;;;;;5071021;28;20028;-79
2022/09/26 07:23:31;;;;;;;0.00;0.00;;;13.20;74.00;;;;;;5069654;28;20478;-79
2022/09/26 07:25:57;;;;;;;0.00;0.00;;;13.20;73.80;;;;;;5070595;28;20043;-75
2022/09/26 07:28:24;;;;;;;0.00;0.00;;;13.20;73.60;;;;;;5052837;28;20518;-78
2022/09/26 07:30:50;;;;;;;0.00;0.00;;;13.10;73.50;;;;;;5071170;28;20028;-79
2022/09/26 07:33:15;;;;;;;0.00;0.00;;;13.10;73.70;;;;;;5070943;28;20389;-78
2022/09/26 07:35:43;;;;;;;0.00;0.00;;;13.00;73.80;;;;;;5071017;28;20024;-79
2022/09/26 07:38:09;;;;;;;0.00;0.00;;;13.10;74.00;;;;;;5069863;28;20453;-78
2022/09/26 07:40:34;;;;;;;0.00;0.00;;;13.30;74.40;;;;;;5069076;28;20108;-79
2022/09/26 07:43:01;;;;;;;0.00;0.00;;;13.50;74.30;;;;;;5069820;28;20033;-77
2022/09/26 07:50:57;;;;;;;0.00;0.00;;;13.60;73.60;;;;;;5070000;28;20711;-78
2022/09/26 07:53:25;;;;;;;0.00;0.00;;;13.60;73.70;;;;;;5070627;28;20476;-79
2022/09/26 07:56:04;;;;;;;0.00;0.00;;;13.60;74.00;;;;;;5070808;28;20028;-78
2022/09/26 07:58:31;;;;;;;0.00;0.00;;;13.70;74.00;;;;;;5070095;28;20433;-79
2022/09/26 08:00:56;;;;;;;0.00;0.00;;;13.70;73.90;;;;;;5068615;28;20292;-79
2022/09/26 08:03:25;;;;;;;0.00;0.00;;;13.70;73.90;;;;;;5069009;28;20186;-79
2022/09/26 08:05:54;;;;;;;0.00;0.00;;;13.80;74.10;;;;;;5064819;28;20142;-79
2022/09/26 08:08:20;;;;;;;0.00;0.00;;;13.90;74.20;;;;;;5065804;28;20025;-79
2022/09/26 08:10:46;;;;;;;0.00;0.00;;;14.10;74.40;;;;;;5067144;28;20035;-79
2022/09/26 08:13:11;;;;;;;0.00;0.00;;;14.50;75.30;;;;;;5049266;28;20041;-78
2022/09/26 08:15:37;;;;;;;0.00;0.00;;;15.40;76.00;;;;;;5068807;28;20028;-78
2022/09/26 08:18:04;;;;;;;0.00;0.00;;;16.40;76.10;;;;;;5069631;28;20148;-79
2022/09/26 08:20:29;;;;;;;0.00;0.00;;;17.50;75.80;;;;;;5070971;28;20421;-78
2022/09/26 08:22:55;;;;;;;0.00;0.00;;;18.40;75.20;;;;;;5070015;28;20021;-77
2022/09/26 08:25:21;;;;;;;0.00;0.00;;;19.30;75.20;;;;;;5052922;28;20130;-78
2022/09/26 08:27:47;;;;;;;0.00;0.00;;;20.20;74.90;;;;;;5052894;28;20060;-77
2022/09/26 08:30:14;;;;;;;0.00;0.00;;;20.80;74.30;;;;;;5070336;28;20373;-77
2022/09/26 08:32:40;;;;;;;0.00;0.00;;;21.40;74.40;;;;;;5079288;28;20123;-77
2022/09/26 08:35:09;;;;;;;0.00;0.00;;;22.00;74.40;;;;;;5082865;28;20026;-78
2022/09/26 08:37:35;;;;;;;0.00;0.00;;;22.70;74.50;;;;;;5089867;28;20031;-78
2022/09/26 08:40:00;;;;;;;0.00;0.00;;;23.30;74.30;;;;;;5091281;28;20024;-77
2022/09/26 08:42:52;;;;;;;0.00;0.00;;;23.50;73.90;;;;;;5091898;28;20039;-75
2022/09/26 08:49:13;;;;;;;0.00;0.00;;;24.40;74.10;;;;;;5081134;28;20492;-76
2022/09/26 08:51:45;;;;;;;0.00;0.00;;;24.70;73.50;;;;;;5075434;28;20078;-76
2022/09/26 08:54:13;;;;;;;0.00;0.00;;;24.90;73.70;;;;;;5082225;28;20414;-77
2022/09/26 08:56:43;;;;;;;0.00;0.00;;;25.20;73.90;;;;;;5079977;28;20021;-78
2022/09/26 08:59:36;;;;;;;0.00;0.00;;;25.50;74.00;;;;;;5075578;28;20025;-78
2022/09/26 09:02:10;;;;;;;0.00;0.00;;;25.70;74.20;;;;;;5070768;28;20086;-78
2022/09/26 09:05:14;;;;;;;0.00;0.00;;;25.90;74.20;;;;;;5071103;28;20119;-77
2022/09/26 09:07:40;;;;;;;0.00;0.00;;;25.90;74.10;;;;;;5078863;28;20381;-77
2022/09/26 09:10:14;;;;;;;0.00;0.00;;;25.80;74.60;;;;;;5077020;28;20081;-77
2022/09/26 09:13:26;;;;;;;0.00;0.00;;;25.70;74.50;;;;;;5079446;28;20024;-77
2022/09/26 09:16:02;;;;;;;0.00;0.00;;;25.40;74.90;;;;;;5080570;28;20028;-77
2022/09/26 09:18:55;;;;;;;0.00;0.00;;;25.70;75.50;;;;;;5080724;28;20058;-77
2022/09/26 09:21:28;;;;;;;0.00;0.00;;;25.90;75.40;;;;;;5078250;28;20023;-78
2022/09/26 09:24:09;;;;;;;0.00;0.00;;;26.30;75.50;;;;;;5073100;28;20031;-78
2022/09/26 09:26:43;;;;;;;0.00;0.00;;;26.60;75.60;;;;;;5075880;28;20086;-78
2022/09/26 09:29:26;;;;;;;0.65;0.30;;;27.00;75.50;;;;;;5078427;28;20032;-78
2022/09/26 09:31:55;;;;;;;0.00;0.00;;;27.20;75.10;;;;;;5070042;28;20028;-78
2022/09/26 09:34:26;;;;;;;0.00;0.00;;;27.30;74.90;;;;;;5069863;28;20028;-77
2022/09/26 09:36:56;;;;;;;0.00;0.00;;;27.40;75.00;;;;;;5068738;28;20064;-77
2022/09/26 09:39:38;;;;;;;0.00;0.00;;;27.80;75.70;;;;;;5072087;28;20009;-78
2022/09/26 09:42:18;;;;;;;0.00;0.00;;;28.00;75.40;;;;;;5078679;28;20028;-78
2022/09/26 09:44:59;;;;;;;0.00;0.00;;;28.10;75.30;;;;;;5088635;28;20073;-78
2022/09/26 09:47:28;;;;;;;0.00;0.00;;;28.20;74.90;;;;;;5081396;28;20020;-77
2022/09/26 09:49:55;;;;;;;0.00;0.00;;;28.10;74.70;;;;;;5059748;28;20141;-78
2022/09/26 09:52:37;;;;;;;0.00;0.00;;;28.00;74.60;;;;;;5069886;28;20108;-78
2022/09/26 09:55:23;;;;;;;0.00;0.00;;;27.80;75.00;;;;;;5069770;28;20453;-77
2022/09/26 09:58:07;;;;;;;0.00;0.00;;;27.30;74.60;;;;;;5080364;28;20192;-77
2022/09/26 10:00:40;;;;;;;0.00;0.00;;;26.20;74.20;;;;;;5079973;28;20523;-78
2022/09/26 10:03:19;;;;;;;0.00;0.00;;;26.00;75.90;;;;;;5088921;28;20028;-79
2022/09/26 10:05:52;;;;;;;0.00;0.00;;;26.10;76.90;;;;;;5089869;28;20028;-77
2022/09/26 10:08:31;;;;;;;0.00;0.00;;;26.30;75.40;;;;;;5089957;28;20032;-78
2022/09/26 10:11:11;;;;;;;0.00;0.00;;;25.80;75.20;;;;;;5089896;28;20500;-77
2022/09/26 10:13:42;;;;;;;0.00;0.00;;;25.30;75.00;;;;;;5089817;28;20594;-77
2022/09/26 10:16:13;;;;;;;0.00;0.00;;;24.60;74.20;;;;;;5089933;28;20158;-77
2022/09/26 10:19:02;;;;;;;0.00;0.00;;;23.90;74.00;;;;;;5088900;28;20631;-78
2022/09/26 10:21:33;;;;;;;0.00;0.00;;;23.00;73.80;;;;;;5085864;28;20028;-76
2022/09/26 10:24:00;;;;;;;0.05;0.00;;;22.20;73.90;;;;;;5089399;28;20377;-77
2022/09/26 10:26:34;;;;;;;0.00;0.00;;;21.50;74.00;;;;;;5087801;28;20032;-75
2022/09/26 10:29:22;;;;;;;0.00;0.00;;;20.90;74.20;;;;;;5089094;28;20109;-77
2022/09/26 10:31:54;;;;;;;0.00;0.00;;;20.40;74.40;;;;;;5089655;28;20095;-78
2022/09/26 10:34:26;;;;;;;0.00;0.00;;;20.30;76.40;;;;;;5088294;28;20051;-78
2022/09/26 10:36:52;;;;;;;0.00;0.00;;;21.30;78.00;;;;;;5089301;28;20030;-77
2022/09/26 10:42:13;;;;;;;0.00;0.00;;;23.90;77.10;;;;;;5089241;28;20031;-79
2022/09/26 10:44:40;;;;;;;0.00;0.00;;;25.30;76.40;;;;;;5089402;28;20108;-78
2022/09/26 10:47:12;;;;;;;0.00;0.00;;;26.10;75.70;;;;;;5088859;28;20020;-77
2022/09/26 10:50:01;;;;;;;0.00;0.00;;;26.90;75.00;;;;;;5089008;28;20074;-79
2022/09/26 10:52:35;;;;;;;0.00;0.00;;;26.60;73.30;;;;;;5089362;28;20039;-77
2022/09/26 10:55:14;;;;;;;0.00;0.00;;;25.80;72.40;;;;;;5088685;28;20023;-77
2022/09/26 10:57:45;;;;;;;0.00;0.00;;;24.70;72.20;;;;;;5085752;28;20430;-77
2022/09/26 11:00:35;;;;;;;0.00;0.00;;;23.70;73.20;;;;;;5086608;28;20028;-75
2022/09/26 11:03:14;;;;;;;0.00;0.00;;;23.50;75.40;;;;;;5076393;28;20020;-76
2022/09/26 11:05:55;;;;;;;0.00;0.00;;;23.80;75.80;;;;;;5075449;28;20028;-76
2022/09/26 11:08:32;;;;;;;0.00;0.00;;;24.50;76.60;;;;;;5078298;28;20066;-76
2022/09/26 11:11:01;;;;;;;0.00;0.00;;;25.30;76.30;;;;;;5076546;28;20016;-77
2022/09/26 11:13:31;;;;;;;0.00;0.00;;;25.80;76.00;;;;;;5076498;28;20100;-69
2022/09/26 11:15:59;;;;;;;0.00;0.00;;;26.10;75.50;;;;;;5075603;28;20373;-72
2022/09/26 11:18:44;;;;;;;0.00;0.00;;;26.40;75.30;;;;;;5075617;28;20012;-75
2022/09/26 11:21:23;;;;;;;0.00;0.00;;;26.30;74.50;;;;;;5081304;28;20020;-72
2022/09/26 11:23:57;;;;;;;0.00;0.00;;;25.40;73.40;;;;;;5085839;28;20044;-74
2022/09/26 11:26:52;;;;;;;0.00;0.00;;;24.50;74.40;;;;;;5070833;28;20107;-76
2022/09/26 11:29:54;;;;;;;0.00;0.00;;;23.30;74.20;;;;;;5066438;28;20059;-70
2022/09/26 11:32:39;;;;;;;0.00;0.00;;;22.40;75.80;;;;;;5066415;28;20127;-74
2022/09/26 11:35:12;;;;;;;0.00;0.00;;;21.60;75.40;;;;;;5068562;28;20024;-74
2022/09/26 11:37:49;;;;;;;0.00;0.00;;;21.00;75.70;;;;;;5068575;28;20013;-73
2022/09/26 11:40:51;;;;;;;0.00;0.00;;;20.70;76.30;;;;;;5067380;28;20051;-74
2022/09/26 11:43:24;;;;;;;0.00;0.00;;;21.20;77.80;;;;;;5067118;28;20020;-76
2022/09/26 11:46:03;;;;;;;0.00;0.00;;;22.10;77.90;;;;;;5066734;28;20024;-71
2022/09/26 11:48:31;;;;;;;0.00;0.00;;;23.20;77.40;;;;;;5066902;28;20032;-74
2022/09/26 11:51:24;;;;;;;0.00;0.00;;;24.10;76.60;;;;;;5067100;28;20025;-75
2022/09/26 11:54:22;;;;;;;0.00;0.00;;;24.90;75.80;;;;;;5067883;28;20173;-71
2022/09/26 11:57:23;;;;;;;0.00;0.00;;;25.00;74.90;;;;;;5067866;28;20025;-75
2022/09/26 11:59:57;;;;;;;0.00;0.00;;;24.10;73.50;;;;;;5066019;28;20106;-77
2022/09/26 12:02:45;;;;;;;0.00;0.00;;;23.10;73.70;;;;;;5066083;28;20032;-74
2022/09/26 12:05:25;;;;;;;0.00;0.00;;;22.40;74.40;;;;;;5066381;28;20035;-75
2022/09/26 12:08:10;;;;;;;0.00;0.00;;;22.30;75.70;;;;;;5066477;28;20029;-75
2022/09/26 12:10:35;;;;;;;0.00;0.00;;;23.20;76.60;;;;;;5066270;28;20048;-74
2022/09/26 12:13:41;;;;;;;0.00;0.00;;;23.80;75.00;;;;;;5068158;28;20482;-74
2022/09/26 12:16:20;;;;;;;0.00;0.00;;;23.60;73.50;;;;;;5067835;28;20025;-75
2022/09/26 12:18:55;;;;;;;0.00;0.00;;;22.90;72.90;;;;;;5084308;28;20020;-76
2022/09/26 12:21:26;;;;;;;0.00;0.00;;;22.20;72.80;;;;;;5078049;28;20473;-72
2022/09/26 12:23:56;;;;;;;0.00;0.00;;;21.50;72.80;;;;;;5085381;28;20028;-73
2022/09/26 12:26:35;;;;;;;0.00;0.00;;;21.00;73.30;;;;;;5072700;28;20022;-73
2022/09/26 12:29:24;;;;;;;0.00;0.00;;;20.60;73.60;;;;;;5074144;28;20036;-72
2022/09/26 12:32:02;;;;;;;0.00;0.00;;;20.30;74.30;;;;;;5076577;28;20341;-72
2022/09/26 12:35:09;;;;;;;0.00;0.00;;;20.60;76.10;;;;;;5071695;28;20031;-73
2022/09/26 12:37:57;;;;;;;0.00;0.00;;;21.30;75.60;;;;;;5074787;28;20018;-73
2022/09/26 12:40:57;;;;;;;0.00;0.00;;;21.30;74.40;;;;;;5077863;28;20012;-73
2022/09/26 12:43:51;;;;;;;0.00;0.00;;;21.10;73.80;;;;;;5076580;28;20732;-72
2022/09/26 12:46:24;;;;;;;0.00;0.00;;;21.30;74.20;;;;;;5077617;28;20161;-72
2022/09/26 12:49:11;;;;;;;0.00;0.00;;;21.20;73.50;;;;;;5076520;28;20051;-72
2022/09/26 12:51:43;;;;;;;;;;;21.00;73.60;;;;;;5076586;28;20025;-72
2022/09/26 12:54:08;;;;;;;0.00;0.00;;;20.90;73.60;;;;;;5072049;28;19949;-71
2022/09/26 12:56:56;;;;;;;;;;;20.70;73.20;;;;;;5079994;28;20024;-70
2022/09/26 12:59:53;;;;;;;0.00;0.00;;;20.50;73.10;;;;;;5075281;28;19915;-72
2022/09/26 13:02:40;;;;;;;0.00;0.00;;;20.30;73.10;;;;;;5082944;28;20054;-72
2022/09/26 13:05:30;;;;;;;0.00;0.00;;;20.00;73.10;;;;;;5082767;28;20488;-72
2022/09/26 13:08:15;;;;;;;0.00;0.00;;;19.50;72.50;;;;;;5090871;28;20035;-75
2022/09/26 13:10:55;;;;;;;0.00;0.00;;;19.00;72.80;;;;;;5091008;28;20457;-72
2022/09/26 13:13:27;;;;;;;0.00;0.00;;;18.60;73.00;;;;;;5080558;28;20032;-72
2022/09/26 13:16:26;;;;;;;0.00;0.00;;;18.40;73.20;;;;;;5074841;28;20501;-73
2022/09/26 13:19:00;;;;;;;0.00;0.00;;;18.60;75.10;;;;;;5057993;28;20048;-72
2022/09/26 13:21:50;;;;;;;0.00;0.00;;;19.10;75.50;;;;;;5070394;28;20074;-73
2022/09/26 13:24:27;;;;;;;0.00;0.00;;;19.50;74.70;;;;;;5079264;28;20019;-76
2022/09/26 13:27:03;;;;;;;0.00;0.00;;;19.60;73.70;;;;;;5074794;28;20040;-73
2022/09/26 13:29:36;;;;;;;0.00;0.00;;;19.60;73.40;;;;;;5078388;28;20016;-72
2022/09/26 13:32:29;;;;;;;0.17;0.10;;;19.40;73.20;;;;;;5079154;28;20120;-73
2022/09/26 13:35:02;;;;;;;0.00;0.00;;;19.20;73.50;;;;;;5077739;28;20382;-71
2022/09/26 13:38:01;;;;;;;0.00;0.00;;;19.20;73.60;;;;;;5075400;28;20017;-72
2022/09/26 13:40:40;;;;;;;0.00;0.00;;;19.20;73.70;;;;;;5058864;28;20035;-72